Bob Shea Ex: Big Bob — WCY5041 — position and weather

sailwx.info

Track history (hours):
 
Tides and Currents Weather Stations Pressure Air Temp Water Temp Dewpoint Dewpoint Depression Visibility Wind Speed Wind Dir Waves Ship Positions

Bob Shea Ex: Big Bob

Owner: BLESSEY ENTERPRISES INC, HARAHAN, LA. More information available from US FCC via Universal Licensing System and Coast Guard Vessel Documentation Center.

Last reported at 2018-Feb-24 19:30 UTC. Time now 2018-Feb-24 19:47 UTC.
Position N 36°57' W 076°20'.

Length 16 m; draft 2.6 m.

Type: Towing. MMSI: 366934030.

Date/timePositionNaut miles runAvg speedWind from/ knotsBaromVisibWave heightAir tempDewpointWater temp
2018-Feb-24 19:30N 36°57' W 076°20'4 7.1
2018-Feb-24 19:00N 37°00' W 076°18'3 6.4
2018-Feb-24 18:30N 37°02' W 076°15'9 7.1
2018-Feb-24 17:12N 37°11' W 076°12'3 7.9
2018-Feb-24 16:52N 37°14' W 076°11'  
2018-Feb-17 22:10N 37°13' W 076°11'2 6.0
2018-Feb-17 21:50N 37°11' W 076°11'2 5.9
2018-Feb-17 21:25N 37°09' W 076°11'3 5.9
2018-Feb-17 21:00N 37°06' W 076°11'3 6.0
2018-Feb-17 20:30N 37°03' W 076°11'2 4.9
2018-Feb-17 19:59N 37°01' W 076°12'4 7.2
2018-Feb-17 19:29N 37°00' W 076°17'4 7.1
2018-Feb-17 18:58N 36°58' W 076°20'3 6.4
2018-Feb-17 18:28N 36°55' W 076°20'3 6.1
2018-Feb-17 18:00N 36°52' W 076°19'3 5.9
2018-Feb-17 17:30N 36°49' W 076°17'1 2.6
2018-Feb-17 17:00N 36°48' W 076°17'0 0.0
2018-Feb-17 16:30N 36°48' W 076°17'0 0.0
2018-Feb-17 16:00N 36°48' W 076°17'0 0.0
2018-Feb-17 15:30N 36°48' W 076°17'0 0.0
2018-Feb-17 15:00N 36°48' W 076°17'0 0.0
2018-Feb-17 14:30N 36°48' W 076°17'0 0.0
2018-Feb-17 14:00N 36°48' W 076°17'0 0.0
2018-Feb-17 13:30N 36°48' W 076°17'0 0.0
2018-Feb-17 13:00N 36°48' W 076°17'0 0.0
2018-Feb-17 12:30N 36°48' W 076°17'0 0.0
2018-Feb-17 12:00N 36°48' W 076°17'0 0.0
2018-Feb-17 11:29N 36°48' W 076°17'0 0.0
2018-Feb-17 11:00N 36°48' W 076°17'0 0.0
2018-Feb-17 10:30N 36°48' W 076°17'0 0.0
2018-Feb-17 10:00N 36°48' W 076°17'0 0.0
2018-Feb-17 09:30N 36°48' W 076°17'0 0.0
2018-Feb-17 09:00N 36°48' W 076°17'0 0.0
2018-Feb-17 08:30N 36°48' W 076°17'0 0.0
2018-Feb-17 08:00N 36°48' W 076°17'0 0.0
2018-Feb-17 07:27N 36°48' W 076°17'0 0.0
2018-Feb-17 07:00N 36°48' W 076°17'0 0.0
2018-Feb-17 06:30N 36°48' W 076°17'0 0.0
2018-Feb-17 06:00N 36°48' W 076°17'0 0.0
2018-Feb-17 05:30N 36°48' W 076°17'0 0.0
2018-Feb-17 05:00N 36°48' W 076°17'0 0.0
2018-Feb-17 04:19N 36°48' W 076°17'0 0.0
2018-Feb-17 04:00N 36°48' W 076°17'0 0.0
2018-Feb-17 03:30N 36°48' W 076°17'0 0.0
2018-Feb-17 03:00N 36°48' W 076°17'0 0.0
2018-Feb-17 02:30N 36°48' W 076°17'0 0.0
2018-Feb-17 02:00N 36°48' W 076°17'0 0.0
2018-Feb-17 01:30N 36°48' W 076°17'0 0.1
2018-Feb-17 01:00N 36°48' W 076°17'0 0.2
2018-Feb-17 00:30N 36°48' W 076°17'1 2.3
2018-Feb-17 00:00N 36°49' W 076°17'4 7.0
2018-Feb-16 23:30N 36°52' W 076°20'5 7.5
2018-Feb-16 22:48N 36°58' W 076°20'2 6.4
2018-Feb-16 22:27N 36°59' W 076°19'3 6.0
2018-Feb-16 21:57N 37°01' W 076°16'3 6.2
2018-Feb-16 21:26N 37°04' W 076°14'3 7.4
2018-Feb-16 21:00N 37°07' W 076°14'4 8.1
2018-Feb-16 20:30N 37°11' W 076°16'3 0.1
2018-Feb-15 08:46N 37°13' W 076°18'2 6.4
2018-Feb-15 08:28N 37°14' W 076°16'  
Track history (hours):
 
Tides and Currents Weather Stations Pressure Air Temp Water Temp Dewpoint Dewpoint Depression Visibility Wind Speed Wind Dir Waves Ship Positions

Bob Shea Ex: Big Bob

Owner: BLESSEY ENTERPRISES INC, HARAHAN, LA. More information available from US FCC via Universal Licensing System and Coast Guard Vessel Documentation Center.

Last reported at 2018-Feb-24 19:30 UTC. Time now 2018-Feb-24 19:47 UTC.
Position N 36°57' W 076°20'.

Length 16 m; draft 2.6 m.

Type: Towing. MMSI: 366934030.

Date/timePositionNaut miles runAvg speedWind from/ knotsBaromVisibWave heightAir tempDewpointWater temp
2018-Feb-24 19:30N 36°57' W 076°20'4 7.1
2018-Feb-24 19:00N 37°00' W 076°18'3 6.4
2018-Feb-24 18:30N 37°02' W 076°15'9 7.1
2018-Feb-24 17:12N 37°11' W 076°12'3 7.9
2018-Feb-24 16:52N 37°14' W 076°11'  
2018-Feb-17 22:10N 37°13' W 076°11'2 6.0
2018-Feb-17 21:50N 37°11' W 076°11'2 5.9
2018-Feb-17 21:25N 37°09' W 076°11'3 5.9
2018-Feb-17 21:00N 37°06' W 076°11'3 6.0
2018-Feb-17 20:30N 37°03' W 076°11'2 4.9
2018-Feb-17 19:59N 37°01' W 076°12'4 7.2
2018-Feb-17 19:29N 37°00' W 076°17'4 7.1
2018-Feb-17 18:58N 36°58' W 076°20'3 6.4
2018-Feb-17 18:28N 36°55' W 076°20'3 6.1
2018-Feb-17 18:00N 36°52' W 076°19'3 5.9
2018-Feb-17 17:30N 36°49' W 076°17'1 2.6
2018-Feb-17 17:00N 36°48' W 076°17'0 0.0
2018-Feb-17 16:30N 36°48' W 076°17'0 0.0
2018-Feb-17 16:00N 36°48' W 076°17'0 0.0
2018-Feb-17 15:30N 36°48' W 076°17'0 0.0
2018-Feb-17 15:00N 36°48' W 076°17'0 0.0
2018-Feb-17 14:30N 36°48' W 076°17'0 0.0
2018-Feb-17 14:00N 36°48' W 076°17'0 0.0
2018-Feb-17 13:30N 36°48' W 076°17'0 0.0
2018-Feb-17 13:00N 36°48' W 076°17'0 0.0
2018-Feb-17 12:30N 36°48' W 076°17'0 0.0
2018-Feb-17 12:00N 36°48' W 076°17'0 0.0
2018-Feb-17 11:29N 36°48' W 076°17'0 0.0
2018-Feb-17 11:00N 36°48' W 076°17'0 0.0
2018-Feb-17 10:30N 36°48' W 076°17'0 0.0
2018-Feb-17 10:00N 36°48' W 076°17'0 0.0
2018-Feb-17 09:30N 36°48' W 076°17'0 0.0
2018-Feb-17 09:00N 36°48' W 076°17'0 0.0
2018-Feb-17 08:30N 36°48' W 076°17'0 0.0
2018-Feb-17 08:00N 36°48' W 076°17'0 0.0
2018-Feb-17 07:27N 36°48' W 076°17'0 0.0
2018-Feb-17 07:00N 36°48' W 076°17'0 0.0
2018-Feb-17 06:30N 36°48' W 076°17'0 0.0
2018-Feb-17 06:00N 36°48' W 076°17'0 0.0
2018-Feb-17 05:30N 36°48' W 076°17'0 0.0
2018-Feb-17 05:00N 36°48' W 076°17'0 0.0
2018-Feb-17 04:19N 36°48' W 076°17'0 0.0
2018-Feb-17 04:00N 36°48' W 076°17'0 0.0
2018-Feb-17 03:30N 36°48' W 076°17'0 0.0
2018-Feb-17 03:00N 36°48' W 076°17'0 0.0
2018-Feb-17 02:30N 36°48' W 076°17'0 0.0
2018-Feb-17 02:00N 36°48' W 076°17'0 0.0
2018-Feb-17 01:30N 36°48' W 076°17'0 0.1
2018-Feb-17 01:00N 36°48' W 076°17'0 0.2
2018-Feb-17 00:30N 36°48' W 076°17'1 2.3
2018-Feb-17 00:00N 36°49' W 076°17'4 7.0
2018-Feb-16 23:30N 36°52' W 076°20'5 7.5
2018-Feb-16 22:48N 36°58' W 076°20'2 6.4
2018-Feb-16 22:27N 36°59' W 076°19'3 6.0
2018-Feb-16 21:57N 37°01' W 076°16'3 6.2
2018-Feb-16 21:26N 37°04' W 076°14'3 7.4
2018-Feb-16 21:00N 37°07' W 076°14'4 8.1
2018-Feb-16 20:30N 37°11' W 076°16'3 0.1
2018-Feb-15 08:46N 37°13' W 076°18'2 6.4
2018-Feb-15 08:28N 37°14' W 076°16'  

Dump ship's entire track history